Time;durP1;ratioP1;P1;durP2;ratioP2;P2;SDS_P1;SDS_P2;PMS_P1;PMS_P2;Temp;Humidity;BMP_temperature;BMP_pressure;BME280_temperature;BME280_humidity;BME280_pressure;Samples;Min_cycle;Max_cycle;Signal;HPM_P1;HPM_P2
2022/01/10 00:02:07;;;;;;;16.77;8.73;;;;;;;;;;5013527;28;20216;-57
2022/01/10 00:04:33;;;;;;;19.50;9.27;;;;;;;;;;5012682;28;20240;-57
2022/01/10 00:06:58;;;;;;;20.50;9.37;;;;;;;;;;5012565;28;20220;-58
2022/01/10 00:09:23;;;;;;;21.53;8.90;;;;;;;;;;5011091;28;20208;-57
2022/01/10 00:11:48;;;;;;;20.43;8.67;;;;;;;;;;5012962;28;20212;-57
2022/01/10 00:14:14;;;;;;;22.67;8.20;;;;;;;;;;4994701;28;20216;-57
2022/01/10 00:16:39;;;;;;;18.67;8.10;;;;;;;;;;5011751;28;20204;-58
2022/01/10 00:19:04;;;;;;;20.57;8.30;;;;;;;;;;5011941;28;20304;-58
2022/01/10 00:21:30;;;;;;;24.43;8.83;;;;;;;;;;5012203;28;20212;-57
2022/01/10 00:23:55;;;;;;;24.13;8.80;;;;;;;;;;4993918;28;20239;-58
2022/01/10 00:26:20;;;;;;;20.80;9.23;;;;;;;;;;5011921;28;20262;-58
2022/01/10 00:28:45;;;;;;;23.23;8.97;;;;;;;;;;5012304;28;20286;-57
2022/01/10 00:31:11;;;;;;;21.07;9.33;;;;;;;;;;5011166;28;20233;-58
2022/01/10 00:33:36;;;;;;;20.23;7.83;;;;;;;;;;5012280;28;20251;-57
2022/01/10 00:36:02;;;;;;;21.10;7.83;;;;;;;;;;5011886;28;20212;-58
2022/01/10 00:38:27;;;;;;;18.93;7.87;;;;;;;;;;5011458;28;20213;-57
2022/01/10 00:40:52;;;;;;;17.90;7.67;;;;;;;;;;5012236;28;20589;-57
2022/01/10 00:43:29;;;;;;;15.80;7.73;;;;;;;;;;5011366;28;20208;-58
2022/01/10 00:45:54;;;;;;;17.83;7.17;;;;;;;;;;5012322;28;20230;-57
2022/01/10 00:48:19;;;;;;;17.43;7.73;;;;;;;;;;5011660;28;20225;-58
2022/01/10 00:50:45;;;;;;;17.60;8.23;;;;;;;;;;5011771;28;20231;-57
2022/01/10 00:53:10;;;;;;;19.57;8.20;;;;;;;;;;5015147;28;20205;-58
2022/01/10 00:55:35;;;;;;;19.37;8.73;;;;;;;;;;5015998;28;20212;-58
2022/01/10 00:58:00;;;;;;;17.83;8.50;;;;;;;;;;5014926;28;20291;-58
2022/01/10 01:00:26;;;;;;;19.73;8.10;;;;;;;;;;5019787;28;20211;-57
2022/01/10 01:02:51;;;;;;;12.67;7.27;;;;;;;;;;5035667;28;20211;-57
2022/01/10 01:05:17;;;;;;;19.00;7.23;;;;;;;;;;5034574;28;20200;-57
2022/01/10 01:07:42;;;;;;;24.87;8.90;;;;;;;;;;5035511;28;20311;-58
2022/01/10 01:10:36;;;;;;;19.33;8.23;;;;;;;;;;5034866;28;20600;-58
2022/01/10 01:13:00;;;;;;;18.87;8.20;;;;;;;;;;5034531;28;20214;-57
2022/01/10 01:15:31;;;;;;;17.67;8.23;;;;;;;;;;5035299;28;20663;-58
2022/01/10 01:18:00;;;;;;;17.03;8.87;;;;;;;;;;5015633;28;20212;-58
2022/01/10 01:25:41;;;;;;;23.83;9.30;;;;;;;;;;5034182;28;20219;-58
2022/01/10 01:28:07;;;;;;;19.40;9.20;;;;;;;;;;5034663;28;20224;-57
2022/01/10 01:30:32;;;;;;;22.83;8.90;;;;;;;;;;5035202;28;20208;-58
2022/01/10 01:32:59;;;;;;;16.27;7.53;;;;;;;;;;5034257;28;20219;-58
2022/01/10 01:35:25;;;;;;;19.67;9.27;;;;;;;;;;5034821;28;20207;-58
2022/01/10 01:37:50;;;;;;;20.80;9.00;;;;;;;;;;5035138;28;20593;-58
2022/01/10 01:40:16;;;;;;;24.60;9.03;;;;;;;;;;5033634;28;20710;-58
2022/01/10 01:42:43;;;;;;;22.80;9.17;;;;;;;;;;5035227;28;20346;-58
2022/01/10 01:45:09;;;;;;;22.97;8.67;;;;;;;;;;5049355;28;20245;-57
2022/01/10 01:47:34;;;;;;;16.00;7.43;;;;;;;;;;5053963;28;20231;-57
2022/01/10 01:50:00;;;;;;;20.43;8.70;;;;;;;;;;5054626;28;20209;-57
2022/01/10 01:52:26;;;;;;;18.87;7.77;;;;;;;;;;5036560;28;20218;-57
2022/01/10 01:54:51;;;;;;;21.07;9.67;;;;;;;;;;5053758;28;20292;-57
2022/01/10 01:57:16;;;;;;;19.53;9.20;;;;;;;;;;5054102;28;20730;-58
2022/01/10 01:59:42;;;;;;;20.20;9.57;;;;;;;;;;5054248;28;20203;-57
2022/01/10 02:02:07;;;;;;;19.60;8.93;;;;;;;;;;5017829;28;20291;-58
2022/01/10 02:04:32;;;;;;;21.07;9.70;;;;;;;;;;5033510;28;20220;-58
2022/01/10 02:06:58;;;;;;;21.20;8.90;;;;;;;;;;5034585;28;20243;-57
2022/01/10 02:09:23;;;;;;;19.23;8.60;;;;;;;;;;5033118;28;20203;-58
2022/01/10 02:11:48;;;;;;;19.27;8.40;;;;;;;;;;5034410;28;20216;-58
2022/01/10 02:14:15;;;;;;;21.30;9.43;;;;;;;;;;5034061;28;20698;-57
2022/01/10 02:16:43;;;;;;;18.37;8.63;;;;;;;;;;5010265;28;20226;-57
2022/01/10 02:19:09;;;;;;;22.63;9.87;;;;;;;;;;5013796;28;20442;-58
2022/01/10 02:21:34;;;;;;;21.30;9.57;;;;;;;;;;5014362;28;20235;-57
2022/01/10 02:23:59;;;;;;;20.47;9.77;;;;;;;;;;5013686;28;20624;-57
2022/01/10 02:26:25;;;;;;;20.30;10.27;;;;;;;;;;5013679;28;20236;-58
2022/01/10 02:28:50;;;;;;;18.27;9.33;;;;;;;;;;5013667;28;20220;-57
2022/01/10 02:31:15;;;;;;;15.97;9.03;;;;;;;;;;5013735;28;20304;-58
2022/01/10 02:33:41;;;;;;;17.37;9.00;;;;;;;;;;4996552;28;20235;-57
2022/01/10 02:36:20;;;;;;;20.90;8.97;;;;;;;;;;5012970;28;20311;-58
2022/01/10 02:38:47;;;;;;;19.10;9.00;;;;;;;;;;5014077;28;20211;-58
2022/01/10 02:41:18;;;;;;;17.83;8.63;;;;;;;;;;5013286;28;20267;-57
2022/01/10 02:43:43;;;;;;;19.87;9.00;;;;;;;;;;5012874;28;20236;-57
2022/01/10 02:46:09;;;;;;;22.30;11.20;;;;;;;;;;5013468;28;20307;-58
2022/01/10 02:48:34;;;;;;;21.50;10.70;;;;;;;;;;5013903;28;20714;-58
2022/01/10 02:50:59;;;;;;;23.40;9.60;;;;;;;;;;5013227;28;20218;-58
2022/01/10 02:53:24;;;;;;;17.83;9.83;;;;;;;;;;5013441;28;20280;-57
2022/01/10 02:55:50;;;;;;;19.50;10.60;;;;;;;;;;5013503;28;20242;-58
2022/01/10 02:58:15;;;;;;;22.57;10.50;;;;;;;;;;4994840;28;20224;-57
2022/01/10 03:00:40;;;;;;;24.90;10.40;;;;;;;;;;5013673;28;20522;-57
2022/01/10 03:03:06;;;;;;;18.90;9.03;;;;;;;;;;5013149;28;20204;-57
2022/01/10 03:05:32;;;;;;;20.33;10.37;;;;;;;;;;5012914;28;20217;-57
2022/01/10 03:07:59;;;;;;;21.90;9.90;;;;;;;;;;5013424;28;20282;-57
2022/01/10 03:10:24;;;;;;;24.40;11.93;;;;;;;;;;5012902;28;20244;-58
2022/01/10 03:12:49;;;;;;;20.10;10.00;;;;;;;;;;5012584;28;20244;-57
2022/01/10 03:15:14;;;;;;;22.83;10.37;;;;;;;;;;5012740;28;20741;-58
2022/01/10 03:17:40;;;;;;;20.60;9.93;;;;;;;;;;5013509;28;20569;-58
2022/01/10 03:20:06;;;;;;;24.83;10.70;;;;;;;;;;5012051;28;20211;-57
2022/01/10 03:22:31;;;;;;;22.60;10.43;;;;;;;;;;5013102;28;20219;-57
2022/01/10 03:24:57;;;;;;;21.97;11.63;;;;;;;;;;5013082;28;20213;-57
2022/01/10 03:27:24;;;;;;;29.53;14.13;;;;;;;;;;5012004;28;20586;-57
2022/01/10 03:29:49;;;;;;;23.90;12.60;;;;;;;;;;5013310;28;20231;-57
2022/01/10 03:32:14;;;;;;;26.30;13.40;;;;;;;;;;5012096;28;20213;-57
2022/01/10 03:34:40;;;;;;;22.17;12.27;;;;;;;;;;5013143;28;20209;-57
2022/01/10 03:37:06;;;;;;;24.33;12.73;;;;;;;;;;5012832;28;20215;-57
2022/01/10 03:39:31;;;;;;;26.77;12.60;;;;;;;;;;5012456;28;20204;-57
2022/01/10 03:41:56;;;;;;;22.73;12.63;;;;;;;;;;5012718;28;20742;-57
2022/01/10 03:44:21;;;;;;;22.27;13.17;;;;;;;;;;5020787;28;20625;-57
2022/01/10 03:46:47;;;;;;;24.07;12.90;;;;;;;;;;5031585;28;20311;-57
2022/01/10 03:49:12;;;;;;;25.80;13.53;;;;;;;;;;5031989;28;20248;-57
2022/01/10 03:51:38;;;;;;;26.07;12.77;;;;;;;;;;5015190;28;20208;-57
2022/01/10 03:54:03;;;;;;;23.40;11.80;;;;;;;;;;5031179;28;20585;-57
2022/01/10 03:56:29;;;;;;;26.10;14.17;;;;;;;;;;5032360;28;20204;-57
2022/01/10 03:58:54;;;;;;;21.87;12.07;;;;;;;;;;5032160;28;20211;-57
2022/01/10 04:01:19;;;;;;;26.27;13.67;;;;;;;;;;5042376;28;20223;-57
2022/01/10 04:03:45;;;;;;;25.70;13.57;;;;;;;;;;5052256;28;20749;-56
2022/01/10 04:06:10;;;;;;;27.27;13.27;;;;;;;;;;5034324;28;20268;-57
2022/01/10 04:08:35;;;;;;;27.83;14.43;;;;;;;;;;5051465;28;20310;-57
2022/01/10 04:11:01;;;;;;;28.13;14.20;;;;;;;;;;5051755;28;20221;-58
2022/01/10 04:13:26;;;;;;;28.53;13.67;;;;;;;;;;5052258;28;20222;-57
2022/01/10 04:15:51;;;;;;;24.77;13.73;;;;;;;;;;5048690;28;20206;-57
2022/01/10 04:18:17;;;;;;;26.47;14.23;;;;;;;;;;5031827;28;20223;-57
2022/01/10 04:20:42;;;;;;;24.07;13.60;;;;;;;;;;5032161;28;20685;-57
2022/01/10 04:23:08;;;;;;;24.27;13.40;;;;;;;;;;5044646;28;20226;-57
2022/01/10 04:25:33;;;;;;;24.83;12.77;;;;;;;;;;5052102;28;20219;-57
2022/01/10 04:27:58;;;;;;;27.00;14.37;;;;;;;;;;5055461;28;20219;-57
2022/01/10 04:30:23;;;;;;;26.60;14.47;;;;;;;;;;5055139;28;20206;-57
2022/01/10 04:32:49;;;;;;;24.27;14.07;;;;;;;;;;5056258;28;20218;-57
2022/01/10 04:35:14;;;;;;;26.47;14.47;;;;;;;;;;5055668;28;20211;-56
2022/01/10 04:37:39;;;;;;;25.97;15.53;;;;;;;;;;5055314;28;20214;-57
2022/01/10 04:40:05;;;;;;;27.43;15.93;;;;;;;;;;5055493;28;20580;-57
2022/01/10 04:42:30;;;;;;;28.40;16.30;;;;;;;;;;5055017;28;20293;-57
2022/01/10 04:44:55;;;;;;;23.93;14.43;;;;;;;;;;5055751;28;20618;-57
2022/01/10 04:47:21;;;;;;;24.47;15.60;;;;;;;;;;5055367;28;20226;-57
2022/01/10 04:50:10;;;;;;;25.20;15.80;;;;;;;;;;5055193;28;20218;-57
2022/01/10 04:52:35;;;;;;;31.70;16.07;;;;;;;;;;5048561;28;20317;-57
2022/01/10 04:55:01;;;;;;;28.43;17.00;;;;;;;;;;5055408;28;20268;-58
2022/01/10 04:57:26;;;;;;;24.23;14.67;;;;;;;;;;5054892;28;20305;-57
2022/01/10 04:59:51;;;;;;;26.43;16.10;;;;;;;;;;5055626;28;20256;-57
2022/01/10 05:02:16;;;;;;;30.47;17.17;;;;;;;;;;5036221;28;20250;-57
2022/01/10 05:04:42;;;;;;;29.33;17.00;;;;;;;;;;5034978;28;20551;-57
2022/01/10 05:07:07;;;;;;;26.83;16.30;;;;;;;;;;5035044;28;20239;-57
2022/01/10 05:09:33;;;;;;;29.47;16.63;;;;;;;;;;5035536;28;20276;-57
2022/01/10 05:11:58;;;;;;;29.07;16.60;;;;;;;;;;5034690;28;20214;-57
2022/01/10 05:14:24;;;;;;;28.87;16.57;;;;;;;;;;5035140;28;20222;-57
2022/01/10 05:16:49;;;;;;;30.80;17.80;;;;;;;;;;5035562;28;20244;-57
2022/01/10 05:19:14;;;;;;;31.40;17.57;;;;;;;;;;5034092;28;20207;-57
2022/01/10 05:21:40;;;;;;;36.37;17.87;;;;;;;;;;5004376;28;20719;-57
2022/01/10 05:24:05;;;;;;;30.40;18.03;;;;;;;;;;5014980;28;20212;-57
2022/01/10 05:26:30;;;;;;;33.10;17.87;;;;;;;;;;5014779;28;20609;-57
2022/01/10 05:28:56;;;;;;;30.23;17.37;;;;;;;;;;5015414;28;20299;-58
2022/01/10 05:31:21;;;;;;;29.93;17.20;;;;;;;;;;5014696;28;20603;-57
2022/01/10 05:33:47;;;;;;;27.10;16.77;;;;;;;;;;4997016;28;20213;-57
2022/01/10 05:36:12;;;;;;;31.90;17.90;;;;;;;;;;5014656;28;20691;-58
2022/01/10 05:38:38;;;;;;;28.77;18.07;;;;;;;;;;5014306;28;20228;-57
2022/01/10 05:41:03;;;;;;;30.77;16.80;;;;;;;;;;5014352;28;20212;-57
2022/01/10 05:43:28;;;;;;;29.55;18.25;;;;;;;;;;5014714;28;20430;-57
2022/01/10 05:45:54;;;;;;;28.83;16.40;;;;;;;;;;5014232;28;20239;-57
2022/01/10 05:48:25;;;;;;;31.40;16.93;;;;;;;;;;5014500;28;20290;-57
2022/01/10 05:50:50;;;;;;;32.50;17.67;;;;;;;;;;5014826;28;20239;-57
2022/01/10 05:53:15;;;;;;;32.13;18.33;;;;;;;;;;5013493;28;20684;-57
2022/01/10 05:55:41;;;;;;;24.97;17.77;;;;;;;;;;5013470;28;20247;-57
2022/01/10 05:58:06;;;;;;;30.77;17.20;;;;;;;;;;5023089;28;20623;-57
2022/01/10 06:00:32;;;;;;;27.67;16.10;;;;;;;;;;5029113;28;20215;-57
2022/01/10 06:02:57;;;;;;;26.40;16.53;;;;;;;;;;4997257;28;20620;-58
2022/01/10 06:05:24;;;;;;;29.03;16.10;;;;;;;;;;5014126;28;20722;-57
2022/01/10 06:07:50;;;;;;;26.03;15.70;;;;;;;;;;5013727;28;20220;-57
2022/01/10 06:10:15;;;;;;;26.83;15.67;;;;;;;;;;5014043;28;20292;-57
2022/01/10 06:12:41;;;;;;;27.00;16.20;;;;;;;;;;5014563;28;20299;-57
2022/01/10 06:15:06;;;;;;;27.87;16.47;;;;;;;;;;5013048;28;20290;-57
2022/01/10 06:17:31;;;;;;;30.77;17.07;;;;;;;;;;5016811;28;20219;-57
2022/01/10 06:19:57;;;;;;;26.33;16.23;;;;;;;;;;5002579;28;20212;-57
2022/01/10 06:22:22;;;;;;;32.87;17.17;;;;;;;;;;5003401;28;20215;-57
2022/01/10 06:24:47;;;;;;;27.17;16.37;;;;;;;;;;5031199;28;20215;-58
2022/01/10 06:27:12;;;;;;;31.55;21.48;;;;;;;;;;5032505;28;20450;-58
2022/01/10 06:29:38;;;;;;;29.10;18.50;;;;;;;;;;5033281;28;20298;-57
2022/01/10 06:32:03;;;;;;;30.53;17.57;;;;;;;;;;5033315;28;20214;-58
2022/01/10 06:34:30;;;;;;;28.17;16.50;;;;;;;;;;5024104;28;20285;-57
2022/01/10 06:36:55;;;;;;;35.73;18.40;;;;;;;;;;5028541;28;20235;-57
2022/01/10 06:39:20;;;;;;;28.20;16.30;;;;;;;;;;5015571;28;20238;-58
2022/01/10 06:41:46;;;;;;;31.13;18.90;;;;;;;;;;5033757;28;20204;-58
2022/01/10 06:44:11;;;;;;;26.80;17.30;;;;;;;;;;5039189;28;20600;-57
2022/01/10 06:46:36;;;;;;;29.33;16.73;;;;;;;;;;5053537;28;20203;-58
2022/01/10 06:49:01;;;;;;;75.20;49.23;;;;;;;;;;5051725;28;20662;-58
2022/01/10 06:51:27;;;;;;;54.93;38.47;;;;;;;;;;5053351;28;20838;-58
2022/01/10 06:53:52;;;;;;;36.10;21.67;;;;;;;;;;5053389;28;20214;-57
2022/01/10 06:56:17;;;;;;;29.07;16.80;;;;;;;;;;5052177;28;20219;-59
2022/01/10 06:58:43;;;;;;;27.60;16.67;;;;;;;;;;5053626;28;20230;-58
2022/01/10 07:01:08;;;;;;;23.47;15.37;;;;;;;;;;5013172;28;20295;-58
2022/01/10 07:03:33;;;;;;;22.97;15.60;;;;;;;;;;5032174;28;20216;-58
2022/01/10 07:05:59;;;;;;;25.43;15.73;;;;;;;;;;5033349;28;20245;-58
2022/01/10 07:08:24;;;;;;;29.00;16.60;;;;;;;;;;5032545;28;20238;-58
2022/01/10 07:10:49;;;;;;;25.37;14.80;;;;;;;;;;5032329;28;20208;-58
2022/01/10 07:13:14;;;;;;;29.63;17.70;;;;;;;;;;5031364;28;20266;-58
2022/01/10 07:15:40;;;;;;;29.40;16.60;;;;;;;;;;5033505;28;20690;-58
2022/01/10 07:18:05;;;;;;;24.87;15.60;;;;;;;;;;5033604;28;20218;-59
2022/01/10 07:20:32;;;;;;;27.73;17.80;;;;;;;;;;5034999;28;20260;-58
2022/01/10 07:22:57;;;;;;;25.97;16.37;;;;;;;;;;5040392;28;20215;-60
2022/01/10 07:25:22;;;;;;;29.67;17.70;;;;;;;;;;5031716;28;20207;-59
2022/01/10 07:27:48;;;;;;;59.97;31.40;;;;;;;;;;5032747;28;20670;-58
2022/01/10 07:30:13;;;;;;;49.70;29.13;;;;;;;;;;5031944;28;20311;-59
2022/01/10 07:32:38;;;;;;;33.27;21.70;;;;;;;;;;5031121;28;20475;-59
2022/01/10 07:35:04;;;;;;;28.17;16.97;;;;;;;;;;5031982;28;20576;-59
2022/01/10 07:37:29;;;;;;;33.60;24.87;;;;;;;;;;5032523;28;20294;-59
2022/01/10 07:39:54;;;;;;;28.87;17.60;;;;;;;;;;5031689;28;20208;-58
2022/01/10 07:42:19;;;;;;;29.43;16.60;;;;;;;;;;5032006;28;20590;-58
2022/01/10 07:44:45;;;;;;;29.17;16.83;;;;;;;;;;5032378;28;20238;-58
2022/01/10 07:47:10;;;;;;;38.23;23.00;;;;;;;;;;5030727;28;20277;-58
2022/01/10 07:49:36;;;;;;;38.63;25.07;;;;;;;;;;5032414;28;20611;-58
2022/01/10 07:52:01;;;;;;;50.40;30.57;;;;;;;;;;5031582;28;20212;-59
2022/01/10 07:54:26;;;;;;;95.50;65.10;;;;;;;;;;5031071;28;20737;-58
2022/01/10 07:56:52;;;;;;;44.10;30.13;;;;;;;;;;5032452;28;20210;-58
2022/01/10 07:59:18;;;;;;;35.00;22.47;;;;;;;;;;5018402;28;20582;-58
2022/01/10 08:01:45;;;;;;;32.30;20.47;;;;;;;;;;5035080;28;20204;-58
2022/01/10 08:04:10;;;;;;;31.43;19.47;;;;;;;;;;5031327;28;20210;-58
2022/01/10 08:06:36;;;;;;;34.07;21.30;;;;;;;;;;5031303;28;20212;-58
2022/01/10 08:09:01;;;;;;;33.60;21.50;;;;;;;;;;5051457;28;20240;-59
2022/01/10 08:11:28;;;;;;;31.33;20.33;;;;;;;;;;5051893;28;20213;-58
2022/01/10 08:13:53;;;;;;;28.83;18.93;;;;;;;;;;5051179;28;20207;-58
2022/01/10 08:16:18;;;;;;;29.00;20.10;;;;;;;;;;5044822;28;20262;-58
2022/01/10 08:18:44;;;;;;;30.87;19.03;;;;;;;;;;5013038;28;20216;-58
2022/01/10 08:21:09;;;;;;;29.73;19.90;;;;;;;;;;5030727;28;20211;-59
2022/01/10 08:23:34;;;;;;;30.40;18.03;;;;;;;;;;5032209;28;20208;-58
2022/01/10 08:25:59;;;;;;;32.57;19.13;;;;;;;;;;5032118;28;20207;-58
2022/01/10 08:28:25;;;;;;;30.53;19.80;;;;;;;;;;5030741;28;20223;-58
2022/01/10 08:30:50;;;;;;;49.33;44.10;;;;;;;;;;5031747;28;20252;-58
2022/01/10 08:33:15;;;;;;;45.57;40.60;;;;;;;;;;5013659;28;20226;-58
2022/01/10 08:35:41;;;;;;;37.47;23.23;;;;;;;;;;5012780;28;20219;-58
2022/01/10 08:38:06;;;;;;;61.80;48.83;;;;;;;;;;5031492;28;20564;-58
2022/01/10 08:40:31;;;;;;;40.43;28.03;;;;;;;;;;5031856;28;20287;-59
2022/01/10 08:42:57;;;;;;;41.57;31.60;;;;;;;;;;5030370;28;20207;-59
2022/01/10 08:45:22;;;;;;;35.37;20.90;;;;;;;;;;5030820;28;20590;-58
2022/01/10 08:47:47;;;;;;;31.03;19.27;;;;;;;;;;5031790;28;20597;-58
2022/01/10 08:50:13;;;;;;;30.27;17.83;;;;;;;;;;5030062;28;20286;-58
2022/01/10 08:52:39;;;;;;;34.03;19.77;;;;;;;;;;5030663;28;20234;-58
2022/01/10 08:55:05;;;;;;;42.73;29.87;;;;;;;;;;5031437;28;20220;-58
2022/01/10 08:57:30;;;;;;;38.87;31.93;;;;;;;;;;5031002;28;20303;-58
2022/01/10 08:59:55;;;;;;;38.07;24.93;;;;;;;;;;5031533;28;20239;-58
2022/01/10 09:02:21;;;;;;;30.53;20.57;;;;;;;;;;5013450;28;20238;-58
2022/01/10 09:04:46;;;;;;;31.07;19.13;;;;;;;;;;5029419;28;20250;-58
2022/01/10 09:07:12;;;;;;;31.23;20.10;;;;;;;;;;5040382;28;20321;-58
2022/01/10 09:09:38;;;;;;;34.87;22.03;;;;;;;;;;5050849;28;20215;-58
2022/01/10 09:12:03;;;;;;;30.43;20.50;;;;;;;;;;5033243;28;20211;-58
2022/01/10 09:14:28;;;;;;;35.03;20.63;;;;;;;;;;5055047;28;20211;-59
2022/01/10 09:16:54;;;;;;;38.77;20.03;;;;;;;;;;5042687;28;20212;-58
2022/01/10 09:19:19;;;;;;;30.60;18.83;;;;;;;;;;5034483;28;20223;-58
2022/01/10 09:21:45;;;;;;;36.10;18.83;;;;;;;;;;5042646;28;20311;-58
2022/01/10 09:24:10;;;;;;;35.33;20.30;;;;;;;;;;5016145;28;20211;-58
2022/01/10 09:26:36;;;;;;;33.67;19.43;;;;;;;;;;5035041;28;20272;-58
2022/01/10 09:29:01;;;;;;;36.07;20.07;;;;;;;;;;5034628;28;20710;-58
2022/01/10 09:31:26;;;;;;;32.60;18.80;;;;;;;;;;5034039;28;20222;-58
2022/01/10 09:33:54;;;;;;;31.97;18.20;;;;;;;;;;5034907;28;20207;-58
2022/01/10 09:36:20;;;;;;;31.57;17.43;;;;;;;;;;5034264;28;20216;-58
2022/01/10 09:38:45;;;;;;;37.90;19.93;;;;;;;;;;5016337;28;20208;-58
2022/01/10 09:41:10;;;;;;;35.37;17.77;;;;;;;;;;5033807;28;20215;-59
2022/01/10 09:43:36;;;;;;;30.80;18.33;;;;;;;;;;5034939;28;20208;-58
2022/01/10 09:46:01;;;;;;;26.50;17.97;;;;;;;;;;5029889;28;20583;-59
2022/01/10 09:48:26;;;;;;;29.57;18.60;;;;;;;;;;5034668;28;20285;-58
2022/01/10 09:50:51;;;;;;;30.90;18.70;;;;;;;;;;5034657;28;20203;-58
2022/01/10 09:53:18;;;;;;;31.87;18.90;;;;;;;;;;5033445;28;20199;-59
2022/01/10 09:55:43;;;;;;;31.07;19.37;;;;;;;;;;5034881;28;20691;-58
2022/01/10 09:58:09;;;;;;;34.07;20.40;;;;;;;;;;5034267;28;20200;-58
2022/01/10 10:00:34;;;;;;;31.20;18.43;;;;;;;;;;5033457;28;20303;-59
2022/01/10 10:03:00;;;;;;;30.30;19.70;;;;;;;;;;5033261;28;20212;-59
2022/01/10 10:05:25;;;;;;;29.67;19.03;;;;;;;;;;5033879;28;20612;-59
2022/01/10 10:07:50;;;;;;;30.97;19.20;;;;;;;;;;5033603;28;20234;-58
2022/01/10 10:10:17;;;;;;;29.97;17.97;;;;;;;;;;5033911;28;20211;-59
2022/01/10 10:12:43;;;;;;;30.57;17.47;;;;;;;;;;5034445;28;20212;-59
2022/01/10 10:15:09;;;;;;;28.37;17.97;;;;;;;;;;5045056;28;20254;-59
2022/01/10 10:17:36;;;;;;;31.57;19.57;;;;;;;;;;5037278;28;20592;-59
2022/01/10 10:20:06;;;;;;;33.73;23.20;;;;;;;;;;5033229;28;20238;-59
2022/01/10 10:22:31;;;;;;;33.20;19.00;;;;;;;;;;5043006;28;20203;-59
2022/01/10 10:24:57;;;;;;;30.47;19.17;;;;;;;;;;5053353;28;20218;-58
2022/01/10 10:27:22;;;;;;;27.00;17.83;;;;;;;;;;5052801;28;20576;-59
2022/01/10 10:29:47;;;;;;;30.67;17.97;;;;;;;;;;5053846;28;20261;-59
2022/01/10 10:32:15;;;;;;;27.87;16.80;;;;;;;;;;5053409;28;20238;-59
2022/01/10 10:34:41;;;;;;;29.23;17.50;;;;;;;;;;5042950;28;20674;-59
2022/01/10 10:37:07;;;;;;;29.27;17.23;;;;;;;;;;5053466;28;20217;-59
2022/01/10 10:39:34;;;;;;;30.97;17.13;;;;;;;;;;5053920;28;20214;-59
2022/01/10 10:42:00;;;;;;;25.83;16.33;;;;;;;;;;5053085;28;20298;-59
2022/01/10 10:44:26;;;;;;;26.45;16.98;;;;;;;;;;5051926;28;20223;-59
2022/01/10 10:46:51;;;;;;;28.57;16.80;;;;;;;;;;5054068;28;20310;-59
2022/01/10 10:49:19;;;;;;;28.67;16.73;;;;;;;;;;5052465;28;20223;-59
2022/01/10 10:51:45;;;;;;;29.13;16.90;;;;;;;;;;5052244;28;20253;-59
2022/01/10 10:54:10;;;;;;;26.53;16.17;;;;;;;;;;5036233;28;20219;-59
2022/01/10 10:56:37;;;;;;;24.60;15.83;;;;;;;;;;5032867;28;20212;-59
2022/01/10 10:59:03;;;;;;;26.40;15.60;;;;;;;;;;5032900;28;20235;-59
2022/01/10 11:01:28;;;;;;;30.27;15.90;;;;;;;;;;5050817;28;20241;-59
2022/01/10 11:03:53;;;;;;;24.55;15.60;;;;;;;;;;5071115;28;20226;-59
2022/01/10 11:06:19;;;;;;;28.27;15.60;;;;;;;;;;5073039;28;20215;-59
2022/01/10 11:08:44;;;;;;;28.67;15.43;;;;;;;;;;5073077;28;20219;-59
2022/01/10 11:11:13;;;;;;;29.80;16.05;;;;;;;;;;5072064;28;20218;-59
2022/01/10 11:13:38;;;;;;;31.63;17.13;;;;;;;;;;5071475;28;20609;-59
2022/01/10 11:16:04;;;;;;;23.63;15.57;;;;;;;;;;5067726;28;20290;-59
2022/01/10 11:18:29;;;;;;;28.52;16.20;;;;;;;;;;5032438;28;20207;-58
2022/01/10 11:20:55;;;;;;;23.77;15.77;;;;;;;;;;5033016;28;20212;-58
2022/01/10 11:23:21;;;;;;;31.00;15.87;;;;;;;;;;5027319;28;20745;-58
2022/01/10 11:25:46;;;;;;;28.38;15.65;;;;;;;;;;5032959;28;20569;-58
2022/01/10 11:28:20;;;;;;;27.05;16.50;;;;;;;;;;5032356;28;20227;-58
2022/01/10 11:30:46;;;;;;;29.05;15.93;;;;;;;;;;5030595;28;20203;-59
2022/01/10 11:33:14;;;;;;;27.55;15.32;;;;;;;;;;5031288;28;20222;-58
2022/01/10 11:35:41;;;;;;;26.17;15.35;;;;;;;;;;5032846;28;20579;-58
2022/01/10 11:38:19;;;;;;;30.63;15.75;;;;;;;;;;5031210;28;20210;-59
2022/01/10 11:40:46;;;;;;;26.95;15.93;;;;;;;;;;5032226;28;20219;-59
2022/01/10 11:43:26;;;;;;;27.40;15.40;;;;;;;;;;5032424;28;20211;-59
2022/01/10 11:45:52;;;;;;;25.70;16.42;;;;;;;;;;5031747;28;20333;-59
2022/01/10 11:48:17;;;;;;;26.27;16.17;;;;;;;;;;5014226;28;20216;-59
2022/01/10 11:50:43;;;;;;;28.15;16.00;;;;;;;;;;5032656;28;20216;-59
2022/01/10 11:53:09;;;;;;;28.67;16.38;;;;;;;;;;5013600;28;20243;-59
2022/01/10 11:55:42;;;;;;;27.42;16.23;;;;;;;;;;5032593;28;20223;-58
2022/01/10 11:58:14;;;;;;;22.55;15.18;;;;;;;;;;5014365;28;20258;-59
2022/01/10 12:00:40;;;;;;;28.08;16.63;;;;;;;;;;5013812;28;20443;-58
2022/01/10 12:03:05;;;;;;;25.02;15.85;;;;;;;;;;5031980;28;20283;-59
2022/01/10 12:05:31;;;;;;;25.70;15.68;;;;;;;;;;5031775;28;20208;-59
2022/01/10 12:07:56;;;;;;;19.25;11.10;;;;;;;;;;5032258;28;20223;-57
2022/01/10 12:10:21;;;;;;;25.92;16.00;;;;;;;;;;5014289;28;20671;-59
2022/01/10 12:12:50;;;;;;;25.45;16.52;;;;;;;;;;5032034;28;21106;-59
2022/01/10 12:15:15;;;;;;;26.52;15.57;;;;;;;;;;5024858;28;20298;-59
2022/01/10 12:17:41;;;;;;;28.33;16.13;;;;;;;;;;5031339;28;20290;-59
2022/01/10 12:20:08;;;;;;;29.08;16.45;;;;;;;;;;5045142;28;20210;-59
2022/01/10 12:22:33;;;;;;;27.73;15.93;;;;;;;;;;5043030;28;20704;-59
2022/01/10 12:24:58;;;;;;;26.92;15.95;;;;;;;;;;5032218;28;20298;-59
2022/01/10 12:27:24;;;;;;;31.42;16.38;;;;;;;;;;5030485;28;20216;-59
2022/01/10 12:29:49;;;;;;;24.58;15.88;;;;;;;;;;5031397;28;20294;-59
2022/01/10 12:32:14;;;;;;;28.83;15.38;;;;;;;;;;5014024;28;20302;-59
2022/01/10 12:34:41;;;;;;;31.05;17.52;;;;;;;;;;5031369;28;20211;-59
2022/01/10 12:37:06;;;;;;;25.33;15.52;;;;;;;;;;5048132;28;20207;-59
2022/01/10 12:39:33;;;;;;;24.35;15.07;;;;;;;;;;5051830;28;20286;-59
2022/01/10 12:41:59;;;;;;;28.63;16.80;;;;;;;;;;5033506;28;20348;-58
2022/01/10 12:44:25;;;;;;;26.35;15.57;;;;;;;;;;5050916;28;20313;-59
2022/01/10 12:46:51;;;;;;;25.83;15.65;;;;;;;;;;5051910;28;20214;-59
2022/01/10 12:49:16;;;;;;;27.77;15.43;;;;;;;;;;5054630;28;20226;-59
2022/01/10 12:51:43;;;;;;;23.90;15.13;;;;;;;;;;5055768;28;20239;-59
2022/01/10 12:54:11;;;;;;;23.35;14.07;;;;;;;;;;5036521;28;20210;-59
2022/01/10 12:56:36;;;;;;;29.95;15.02;;;;;;;;;;5035027;28;20699;-59
2022/01/10 12:59:01;;;;;;;28.60;15.70;;;;;;;;;;5035216;28;20216;-59
2022/01/10 13:01:26;;;;;;;28.05;15.23;;;;;;;;;;5034919;28;20225;-59
2022/01/10 13:03:54;;;;;;;27.00;15.45;;;;;;;;;;5054659;28;20199;-58
2022/01/10 13:06:19;;;;;;;25.77;15.23;;;;;;;;;;5036242;28;20702;-58
2022/01/10 13:08:44;;;;;;;23.85;14.93;;;;;;;;;;5037360;28;20253;-58
2022/01/10 13:11:15;;;;;;;24.35;14.65;;;;;;;;;;5047953;28;20216;-59
2022/01/10 13:13:41;;;;;;;25.52;14.27;;;;;;;;;;5014476;28;20309;-59
2022/01/10 13:16:23;;;;;;;25.20;14.50;;;;;;;;;;5014259;28;20222;-59
2022/01/10 13:18:53;;;;;;;25.73;14.25;;;;;;;;;;5011545;28;20254;-58
2022/01/10 13:21:27;;;;;;;28.02;14.65;;;;;;;;;;5017184;28;20208;-59
2022/01/10 13:24:04;;;;;;;25.70;14.98;;;;;;;;;;5054584;28;20621;-58
2022/01/10 13:26:30;;;;;;;28.67;14.65;;;;;;;;;;5051750;28;20654;-58
2022/01/10 13:28:55;;;;;;;27.15;15.02;;;;;;;;;;5033437;28;20222;-59
2022/01/10 13:31:20;;;;;;;25.38;15.93;;;;;;;;;;5033823;28;20266;-59
2022/01/10 13:33:46;;;;;;;25.92;14.57;;;;;;;;;;5048942;28;20532;-59
2022/01/10 13:36:11;;;;;;;24.23;15.10;;;;;;;;;;5054697;28;20207;-58
2022/01/10 13:38:37;;;;;;;25.25;14.95;;;;;;;;;;5054515;28;20207;-59
2022/01/10 13:41:07;;;;;;;23.88;15.77;;;;;;;;;;5054399;28;20249;-59
2022/01/10 13:43:33;;;;;;;26.35;15.10;;;;;;;;;;5054669;28;20596;-59
2022/01/10 13:46:02;;;;;;;25.38;15.40;;;;;;;;;;5054194;28;20769;-59
2022/01/10 13:48:31;;;;;;;25.05;15.55;;;;;;;;;;5054485;28;20690;-59
2022/01/10 13:50:58;;;;;;;25.92;15.18;;;;;;;;;;5054488;28;20219;-59
2022/01/10 13:53:27;;;;;;;27.15;14.90;;;;;;;;;;5054155;28;20214;-59
2022/01/10 13:56:05;;;;;;;26.38;15.90;;;;;;;;;;5054652;28;20337;-59
2022/01/10 13:58:32;;;;;;;25.33;15.43;;;;;;;;;;5052325;28;20203;-58
2022/01/10 14:00:58;;;;;;;23.98;15.52;;;;;;;;;;5022959;28;20569;-59
2022/01/10 14:03:24;;;;;;;27.08;16.25;;;;;;;;;;5031946;28;20276;-59
2022/01/10 14:06:06;;;;;;;30.42;16.88;;;;;;;;;;5033822;28;20274;-58
2022/01/10 14:08:32;;;;;;;31.40;16.88;;;;;;;;;;5043399;28;20226;-58
2022/01/10 14:10:58;;;;;;;27.13;15.68;;;;;;;;;;5043404;28;20211;-58
2022/01/10 14:13:23;;;;;;;25.33;16.05;;;;;;;;;;5034390;28;20214;-59
2022/01/10 14:15:48;;;;;;;27.58;14.73;;;;;;;;;;5032647;28;20204;-60
2022/01/10 14:18:14;;;;;;;23.83;16.20;;;;;;;;;;5031813;28;20273;-60